createdAt,value
2017-08-06T00:00:11.065Z,54
2017-08-06T00:01:19.150Z,54
2017-08-06T00:02:27.242Z,54
2017-08-06T00:03:35.331Z,54
2017-08-06T00:04:43.413Z,54
2017-08-06T00:05:51.500Z,55
2017-08-06T00:06:59.586Z,54
2017-08-06T00:08:07.676Z,54
2017-08-06T00:09:15.761Z,54
2017-08-06T00:10:23.845Z,54
2017-08-06T00:11:31.934Z,54
2017-08-06T00:12:40.020Z,54
2017-08-06T00:13:48.108Z,55
2017-08-06T00:14:56.195Z,55
2017-08-06T00:16:04.280Z,55
2017-08-06T00:17:12.370Z,55
2017-08-06T00:18:20.457Z,55
2017-08-06T00:19:28.544Z,55
2017-08-06T00:20:36.633Z,55
2017-08-06T00:21:44.964Z,55
2017-08-06T00:22:52.803Z,54
2017-08-06T00:24:00.888Z,55
2017-08-06T00:25:08.977Z,55
2017-08-06T00:26:17.064Z,55
2017-08-06T00:27:25.155Z,55
2017-08-06T00:28:33.239Z,55
2017-08-06T00:29:41.326Z,55
2017-08-06T00:30:49.456Z,55
2017-08-06T00:31:57.500Z,55
2017-08-06T00:33:05.587Z,54
2017-08-06T00:34:13.675Z,54
2017-08-06T00:35:21.759Z,54
2017-08-06T00:36:29.848Z,55
2017-08-06T00:37:37.935Z,55
2017-08-06T00:38:46.022Z,55
2017-08-06T00:39:54.108Z,55
2017-08-06T00:41:02.192Z,55
2017-08-06T00:42:10.280Z,54
2017-08-06T00:43:18.371Z,55
2017-08-06T00:44:26.455Z,55
2017-08-06T00:45:34.548Z,55
2017-08-06T00:46:42.630Z,55
2017-08-06T00:47:50.717Z,55
2017-08-06T00:48:58.805Z,55
2017-08-06T00:50:06.889Z,55
2017-08-06T00:51:14.978Z,55
2017-08-06T00:52:23.065Z,55
2017-08-06T00:53:31.150Z,55
2017-08-06T00:54:39.236Z,55
2017-08-06T00:55:47.325Z,55
2017-08-06T00:56:55.412Z,55
2017-08-06T00:58:03.498Z,55
2017-08-06T00:59:11.585Z,55
2017-08-06T01:00:19.670Z,55
2017-08-06T01:01:27.756Z,55
2017-08-06T01:02:35.847Z,55
2017-08-06T01:03:43.932Z,55
2017-08-06T01:04:52.018Z,55
2017-08-06T01:06:00.111Z,55
2017-08-06T01:07:08.193Z,55
2017-08-06T01:08:16.280Z,55
2017-08-06T01:09:24.366Z,55
2017-08-06T01:10:32.452Z,55
2017-08-06T01:11:40.536Z,55
2017-08-06T01:12:48.627Z,55
2017-08-06T01:13:56.715Z,55
2017-08-06T01:15:04.800Z,55
2017-08-06T01:16:12.896Z,55
2017-08-06T01:17:20.973Z,55
2017-08-06T01:18:29.059Z,55
2017-08-06T01:19:37.145Z,55
2017-08-06T01:20:45.233Z,56
2017-08-06T01:21:53.320Z,55
2017-08-06T01:23:01.407Z,55
2017-08-06T01:24:09.494Z,55
2017-08-06T01:25:17.584Z,56
2017-08-06T01:26:25.678Z,56
2017-08-06T01:27:33.752Z,56
2017-08-06T01:28:41.843Z,56
2017-08-06T01:29:49.928Z,55
2017-08-06T01:30:58.028Z,56
2017-08-06T01:32:06.123Z,56
2017-08-06T01:33:14.201Z,56
2017-08-06T01:34:22.288Z,56
2017-08-06T01:35:30.377Z,57
2017-08-06T01:36:38.462Z,56
2017-08-06T01:37:46.548Z,56
2017-08-06T01:38:54.634Z,56
2017-08-06T01:40:02.721Z,56
2017-08-06T01:41:10.808Z,56
2017-08-06T01:42:18.895Z,56
2017-08-06T01:43:26.984Z,56
2017-08-06T01:44:35.071Z,56
2017-08-06T01:45:43.158Z,56
2017-08-06T01:46:51.242Z,57
2017-08-06T01:47:59.352Z,57
2017-08-06T01:49:07.439Z,56
2017-08-06T01:50:15.532Z,56
2017-08-06T01:51:23.617Z,57
2017-08-06T01:52:31.700Z,57
2017-08-06T01:53:39.786Z,57
2017-08-06T01:54:47.874Z,57
2017-08-06T01:55:55.958Z,57
2017-08-06T01:57:04.048Z,57
2017-08-06T01:58:12.134Z,57
2017-08-06T01:59:20.220Z,57
2017-08-06T02:00:28.306Z,57
2017-08-06T02:01:36.393Z,57
2017-08-06T02:02:44.478Z,57
2017-08-06T02:03:52.563Z,57
2017-08-06T02:05:00.741Z,57
2017-08-06T02:06:08.736Z,58
2017-08-06T02:07:16.886Z,57
2017-08-06T02:08:24.913Z,58
2017-08-06T02:09:33.000Z,57
2017-08-06T02:10:41.087Z,57
2017-08-06T02:11:49.170Z,57
2017-08-06T02:12:57.266Z,57
2017-08-06T02:14:05.348Z,57
2017-08-06T02:15:13.432Z,57
2017-08-06T02:16:21.522Z,58
2017-08-06T02:17:29.606Z,58
2017-08-06T02:18:37.690Z,58
2017-08-06T02:19:45.780Z,58
2017-08-06T02:20:53.865Z,58
2017-08-06T02:22:01.948Z,58
2017-08-06T02:23:10.038Z,57
2017-08-06T02:24:18.127Z,58
2017-08-06T02:25:26.213Z,58
2017-08-06T02:26:34.298Z,58
2017-08-06T02:27:42.383Z,58
2017-08-06T02:28:50.474Z,58
2017-08-06T02:29:58.558Z,58
2017-08-06T02:31:06.644Z,58
2017-08-06T02:32:14.729Z,58
2017-08-06T02:33:22.815Z,58
2017-08-06T02:34:30.902Z,58
2017-08-06T02:35:38.991Z,58
2017-08-06T02:36:47.077Z,58
2017-08-06T02:37:55.165Z,58
2017-08-06T02:39:03.250Z,58
2017-08-06T02:40:11.341Z,58
2017-08-06T02:41:19.420Z,58
2017-08-06T02:42:27.513Z,58
2017-08-06T02:43:35.614Z,58
2017-08-06T02:44:43.683Z,58
2017-08-06T02:45:51.768Z,58
2017-08-06T02:46:59.854Z,58
2017-08-06T02:48:07.941Z,58
2017-08-06T02:49:16.027Z,58
2017-08-06T02:50:24.113Z,58
2017-08-06T02:51:32.199Z,58
2017-08-06T02:52:40.288Z,58
2017-08-06T02:53:48.373Z,58
2017-08-06T02:54:56.459Z,58
2017-08-06T02:56:04.548Z,58
2017-08-06T02:57:12.637Z,58
2017-08-06T02:58:20.729Z,58
2017-08-06T02:59:28.820Z,58
2017-08-06T03:00:36.901Z,58
2017-08-06T03:01:44.986Z,58
2017-08-06T03:02:53.071Z,58
2017-08-06T03:04:01.159Z,58
2017-08-06T03:05:09.245Z,58
2017-08-06T03:06:17.334Z,58
2017-08-06T03:07:25.419Z,58
2017-08-06T03:08:33.507Z,58
2017-08-06T03:09:41.599Z,58
2017-08-06T03:10:49.684Z,58
2017-08-06T03:11:57.770Z,58
2017-08-06T03:13:05.857Z,58
2017-08-06T03:14:13.945Z,58
2017-08-06T03:15:22.030Z,58
2017-08-06T03:16:30.122Z,58
2017-08-06T03:17:38.214Z,59
2017-08-06T03:18:46.289Z,59
2017-08-06T03:19:54.410Z,59
2017-08-06T03:21:02.460Z,59
2017-08-06T03:22:10.549Z,59
2017-08-06T03:23:18.656Z,59
2017-08-06T03:24:26.724Z,59
2017-08-06T03:25:34.808Z,59
2017-08-06T03:26:42.893Z,59
2017-08-06T03:27:50.984Z,59
2017-08-06T03:28:59.068Z,59
2017-08-06T03:30:07.155Z,59
2017-08-06T03:31:15.242Z,59
2017-08-06T03:32:23.326Z,59
2017-08-06T03:33:31.414Z,59
2017-08-06T03:34:39.501Z,59
2017-08-06T03:35:47.587Z,59
2017-08-06T03:36:55.673Z,59
2017-08-06T03:38:03.757Z,59
2017-08-06T03:39:11.845Z,59
2017-08-06T03:40:19.932Z,59
2017-08-06T03:41:28.022Z,59
2017-08-06T03:42:36.107Z,59
2017-08-06T03:43:44.193Z,59
2017-08-06T03:44:52.278Z,59
2017-08-06T03:46:00.369Z,59
2017-08-06T03:47:08.451Z,59
2017-08-06T03:48:16.535Z,59
2017-08-06T03:49:24.623Z,59
2017-08-06T03:50:32.710Z,59
2017-08-06T03:51:40.794Z,59
2017-08-06T03:52:48.883Z,59
2017-08-06T03:53:56.968Z,59
2017-08-06T03:55:05.118Z,59
2017-08-06T03:56:13.141Z,59
2017-08-06T03:57:21.229Z,59
2017-08-06T03:58:29.313Z,59
2017-08-06T03:59:37.400Z,59
2017-08-06T04:00:45.487Z,59
2017-08-06T04:01:53.572Z,59
2017-08-06T04:03:01.668Z,59
2017-08-06T04:04:09.748Z,59
2017-08-06T04:05:17.832Z,59
2017-08-06T04:06:25.918Z,59
2017-08-06T04:07:34.005Z,60
2017-08-06T04:08:42.097Z,59
2017-08-06T04:09:50.178Z,59
2017-08-06T04:10:58.265Z,59
2017-08-06T04:12:06.352Z,59
2017-08-06T04:13:14.437Z,60
2017-08-06T04:14:22.530Z,60
2017-08-06T04:15:30.611Z,60
2017-08-06T04:16:38.699Z,60
2017-08-06T04:17:46.782Z,60
2017-08-06T04:18:54.868Z,60
2017-08-06T04:20:02.962Z,60
2017-08-06T04:21:11.055Z,60
2017-08-06T04:22:19.154Z,60
2017-08-06T04:23:27.236Z,60
2017-08-06T04:24:35.325Z,60
2017-08-06T04:25:43.411Z,60
2017-08-06T04:26:51.495Z,60
2017-08-06T04:27:59.581Z,60
2017-08-06T04:29:07.670Z,60
2017-08-06T04:30:15.756Z,60
2017-08-06T04:31:23.843Z,60
2017-08-06T04:32:31.928Z,60
2017-08-06T04:33:40.018Z,60
2017-08-06T04:34:48.103Z,60
2017-08-06T04:35:56.186Z,60
2017-08-06T04:37:04.272Z,60
2017-08-06T04:38:12.358Z,60
2017-08-06T04:39:20.445Z,60
2017-08-06T04:40:28.544Z,60
2017-08-06T04:41:36.643Z,61
2017-08-06T04:42:44.716Z,60
2017-08-06T04:43:52.802Z,61
2017-08-06T04:45:00.889Z,61
2017-08-06T04:46:08.975Z,61
2017-08-06T04:47:17.069Z,60
2017-08-06T04:48:25.150Z,61
2017-08-06T04:49:33.233Z,60
2017-08-06T04:50:41.317Z,61
2017-08-06T04:51:49.404Z,61
2017-08-06T04:52:57.540Z,61
2017-08-06T04:54:05.589Z,60
2017-08-06T04:55:13.674Z,61
2017-08-06T04:56:21.759Z,61
2017-08-06T04:57:29.853Z,61
2017-08-06T04:58:37.939Z,61
2017-08-06T04:59:46.026Z,61
2017-08-06T05:00:54.126Z,61
2017-08-06T05:02:02.197Z,60
2017-08-06T05:03:10.291Z,61
2017-08-06T05:04:18.386Z,61
2017-08-06T05:05:26.461Z,60
2017-08-06T05:06:34.542Z,61
2017-08-06T05:07:42.630Z,61
2017-08-06T05:08:50.715Z,61
2017-08-06T05:09:58.810Z,61
2017-08-06T05:11:06.894Z,61
2017-08-06T05:12:14.983Z,61
2017-08-06T05:13:23.072Z,61
2017-08-06T05:14:31.157Z,61
2017-08-06T05:15:39.253Z,61
2017-08-06T05:16:47.329Z,61
2017-08-06T05:17:55.420Z,61
2017-08-06T05:19:03.518Z,61
2017-08-06T05:20:11.599Z,61
2017-08-06T05:21:19.673Z,61
2017-08-06T05:22:27.765Z,61
2017-08-06T05:23:35.852Z,61
2017-08-06T05:24:43.939Z,61
2017-08-06T05:25:52.026Z,61
2017-08-06T05:27:00.184Z,61
2017-08-06T05:28:08.211Z,61
2017-08-06T05:29:16.296Z,61
2017-08-06T05:30:24.383Z,61
2017-08-06T05:31:32.472Z,61
2017-08-06T05:32:40.557Z,61
2017-08-06T05:33:48.650Z,61
2017-08-06T05:34:56.732Z,61
2017-08-06T05:36:04.824Z,62
2017-08-06T05:37:12.906Z,61
2017-08-06T05:38:21.001Z,62
2017-08-06T05:39:29.090Z,61
2017-08-06T05:40:37.180Z,61
2017-08-06T05:41:45.265Z,61
2017-08-06T05:42:53.350Z,61
2017-08-06T05:44:01.443Z,61
2017-08-06T05:45:09.518Z,61
2017-08-06T05:46:17.610Z,61
2017-08-06T05:47:25.705Z,61
2017-08-06T05:48:33.785Z,61
2017-08-06T05:49:41.867Z,61
2017-08-06T05:50:49.963Z,62
2017-08-06T05:51:58.046Z,61
2017-08-06T05:53:06.142Z,62
2017-08-06T05:54:14.226Z,62
2017-08-06T05:55:22.306Z,61
2017-08-06T05:56:30.421Z,62
2017-08-06T05:57:38.482Z,62
2017-08-06T05:58:46.562Z,61
2017-08-06T05:59:54.655Z,62
2017-08-06T06:01:02.754Z,62
2017-08-06T06:02:10.842Z,62
2017-08-06T06:03:18.939Z,62
2017-08-06T06:04:27.026Z,62
2017-08-06T06:05:35.096Z,62
2017-08-06T06:06:43.200Z,62
2017-08-06T06:07:51.288Z,62
2017-08-06T06:08:59.375Z,62
2017-08-06T06:10:07.468Z,62
2017-08-06T06:11:15.549Z,62
2017-08-06T06:12:23.653Z,62
2017-08-06T06:13:31.736Z,62
2017-08-06T06:14:39.810Z,62
2017-08-06T06:15:47.907Z,62
2017-08-06T06:16:55.998Z,62
2017-08-06T06:18:04.090Z,62
2017-08-06T06:19:12.182Z,62
2017-08-06T06:20:20.261Z,62
2017-08-06T06:21:28.349Z,62
2017-08-06T06:22:36.425Z,62
2017-08-06T06:23:44.522Z,62
2017-08-06T06:24:52.613Z,62
2017-08-06T06:26:00.705Z,62
2017-08-06T06:27:08.807Z,62
2017-08-06T06:28:16.894Z,62
2017-08-06T06:29:24.985Z,62
2017-08-06T06:30:33.066Z,62
2017-08-06T06:31:41.160Z,62
2017-08-06T06:32:49.242Z,62
2017-08-06T06:33:57.355Z,63
2017-08-06T06:35:05.450Z,62
2017-08-06T06:36:13.546Z,62
2017-08-06T06:37:21.632Z,63
2017-08-06T06:38:29.716Z,63
2017-08-06T06:39:37.807Z,62
2017-08-06T06:40:45.894Z,62
2017-08-06T06:41:53.988Z,62
2017-08-06T06:43:02.071Z,62
2017-08-06T06:44:10.153Z,62
2017-08-06T06:45:18.231Z,62
2017-08-06T06:46:26.342Z,62
2017-08-06T06:47:34.417Z,62
2017-08-06T06:48:42.506Z,62
2017-08-06T06:49:50.614Z,63
2017-08-06T06:50:58.679Z,63
2017-08-06T06:52:06.766Z,63
2017-08-06T06:53:14.854Z,63
2017-08-06T06:54:22.957Z,63
2017-08-06T06:55:31.038Z,63
2017-08-06T06:56:39.129Z,63
2017-08-06T06:57:47.223Z,63
2017-08-06T06:58:55.323Z,63
2017-08-06T07:00:03.412Z,63
2017-08-06T07:01:11.510Z,62
2017-08-06T07:02:19.601Z,63
2017-08-06T07:03:27.928Z,63
2017-08-06T07:04:35.775Z,63
2017-08-06T07:05:43.861Z,63
2017-08-06T07:06:51.943Z,63
2017-08-06T07:08:00.049Z,63
2017-08-06T07:09:08.134Z,63
2017-08-06T07:10:16.249Z,63
2017-08-06T07:11:24.300Z,63
2017-08-06T07:12:32.385Z,63
2017-08-06T07:13:40.490Z,63
2017-08-06T07:14:48.583Z,64
2017-08-06T07:15:56.671Z,64
2017-08-06T07:17:04.762Z,63
2017-08-06T07:18:12.867Z,63
2017-08-06T07:19:20.944Z,63
2017-08-06T07:20:29.032Z,64
2017-08-06T07:21:37.152Z,64
2017-08-06T07:22:45.247Z,64
2017-08-06T07:23:53.334Z,64
2017-08-06T07:25:01.431Z,63
2017-08-06T07:26:09.528Z,64
2017-08-06T07:27:17.615Z,64
2017-08-06T07:28:25.703Z,64
2017-08-06T07:29:33.791Z,64
2017-08-06T07:30:41.875Z,64
2017-08-06T07:31:49.973Z,64
2017-08-06T07:32:58.056Z,64
2017-08-06T07:34:06.143Z,64
2017-08-06T07:35:14.365Z,64
2017-08-06T07:36:22.321Z,64
2017-08-06T07:37:30.407Z,65
2017-08-06T07:38:38.497Z,64
2017-08-06T07:39:46.581Z,65
2017-08-06T07:40:54.670Z,64
2017-08-06T07:42:02.756Z,65
2017-08-06T07:43:11.526Z,64
2017-08-06T07:44:18.930Z,64
2017-08-06T07:45:27.025Z,65
2017-08-06T07:46:35.121Z,65
2017-08-06T07:47:43.219Z,65
2017-08-06T07:48:51.311Z,65
2017-08-06T07:49:59.550Z,65
2017-08-06T07:51:07.472Z,65
2017-08-06T07:52:15.587Z,64
2017-08-06T07:53:23.666Z,65
2017-08-06T07:54:31.857Z,64
2017-08-06T07:55:39.850Z,64
2017-08-06T07:56:48.035Z,64
2017-08-06T07:57:56.015Z,65
2017-08-06T07:59:04.110Z,65
2017-08-06T08:00:12.301Z,65
2017-08-06T08:01:20.283Z,64
2017-08-06T08:02:28.368Z,65
2017-08-06T08:03:36.463Z,65
2017-08-06T08:04:44.925Z,65
2017-08-06T08:05:52.658Z,66
2017-08-06T08:07:00.775Z,66
2017-08-06T08:08:08.978Z,66
2017-08-06T08:09:16.913Z,66
2017-08-06T08:10:25.252Z,66
2017-08-06T08:11:33.191Z,66
2017-08-06T08:12:41.194Z,66
2017-08-06T08:13:49.279Z,66
2017-08-06T08:14:57.360Z,65
2017-08-06T08:16:05.462Z,65
2017-08-06T08:17:13.543Z,65
2017-08-06T08:18:21.637Z,65
2017-08-06T08:19:29.769Z,65
2017-08-06T08:20:37.807Z,65
2017-08-06T08:21:45.913Z,65
2017-08-06T08:22:53.973Z,65
2017-08-06T08:24:02.164Z,65
2017-08-06T08:25:10.178Z,65
2017-08-06T08:26:18.276Z,65
2017-08-06T08:27:26.394Z,64
2017-08-06T08:28:34.463Z,64
2017-08-06T08:29:42.550Z,64
2017-08-06T08:30:50.759Z,64
2017-08-06T08:31:58.846Z,64
2017-08-06T08:33:06.839Z,64
2017-08-06T08:34:14.926Z,63
2017-08-06T08:35:23.035Z,63
2017-08-06T08:36:31.110Z,63
2017-08-06T08:37:39.211Z,63
2017-08-06T08:38:47.390Z,63
2017-08-06T08:39:55.393Z,63
2017-08-06T08:41:03.537Z,62
2017-08-06T08:42:11.584Z,63
2017-08-06T08:43:19.783Z,63
2017-08-06T08:44:27.759Z,63
2017-08-06T08:45:35.843Z,63
2017-08-06T08:46:43.940Z,63
2017-08-06T08:47:52.014Z,63
2017-08-06T08:49:00.107Z,62
2017-08-06T08:50:08.193Z,62
2017-08-06T08:51:16.306Z,62
2017-08-06T08:52:24.409Z,62
2017-08-06T08:53:32.472Z,62
2017-08-06T08:54:40.571Z,62
2017-08-06T08:55:48.659Z,62
2017-08-06T08:56:56.745Z,62
2017-08-06T08:58:04.831Z,61
2017-08-06T08:59:12.917Z,61
2017-08-06T09:00:21.022Z,62
2017-08-06T09:01:29.102Z,61
2017-08-06T09:02:37.192Z,61
2017-08-06T09:03:45.279Z,61
2017-08-06T09:04:53.365Z,61
2017-08-06T09:06:01.451Z,61
2017-08-06T09:07:09.554Z,61
2017-08-06T09:08:17.626Z,61
2017-08-06T09:09:25.711Z,61
2017-08-06T09:10:33.801Z,61
2017-08-06T09:11:41.888Z,61
2017-08-06T09:12:49.974Z,61
2017-08-06T09:13:58.063Z,61
2017-08-06T09:15:06.147Z,61
2017-08-06T09:16:14.233Z,61
2017-08-06T09:17:22.329Z,61
2017-08-06T09:18:30.407Z,61
2017-08-06T09:19:38.495Z,61
2017-08-06T09:20:46.586Z,61
2017-08-06T09:21:54.669Z,61
2017-08-06T09:23:02.756Z,60
2017-08-06T09:24:10.842Z,60
2017-08-06T09:25:18.930Z,61
2017-08-06T09:26:27.018Z,60
2017-08-06T09:27:35.111Z,60
2017-08-06T09:28:43.195Z,61
2017-08-06T09:29:51.287Z,60
2017-08-06T09:30:59.377Z,61
2017-08-06T09:32:07.542Z,61
2017-08-06T09:33:15.548Z,61
2017-08-06T09:34:23.637Z,61
2017-08-06T09:35:31.724Z,60
2017-08-06T09:36:39.809Z,61
2017-08-06T09:37:47.903Z,60
2017-08-06T09:38:55.985Z,61
2017-08-06T09:40:04.075Z,61
2017-08-06T09:41:12.161Z,61
2017-08-06T09:42:20.247Z,60
2017-08-06T09:43:28.333Z,61
2017-08-06T09:44:36.419Z,61
2017-08-06T09:45:44.513Z,61
2017-08-06T09:46:52.595Z,60
2017-08-06T09:48:00.682Z,61
2017-08-06T09:49:08.772Z,60
2017-08-06T09:50:16.857Z,61
2017-08-06T09:51:24.943Z,60
2017-08-06T09:52:33.029Z,61
2017-08-06T09:53:41.117Z,61
2017-08-06T09:54:49.202Z,61
2017-08-06T09:55:57.384Z,61
2017-08-06T09:57:05.481Z,60
2017-08-06T09:58:13.621Z,61
2017-08-06T09:59:21.549Z,60
2017-08-06T10:00:29.657Z,61
2017-08-06T10:01:37.745Z,61
2017-08-06T10:02:45.840Z,61
2017-08-06T10:03:54.070Z,61
2017-08-06T10:05:02.117Z,61
2017-08-06T10:06:10.120Z,61
2017-08-06T10:07:18.213Z,61
2017-08-06T10:08:26.308Z,61
2017-08-06T10:09:34.402Z,61
2017-08-06T10:10:42.532Z,61
2017-08-06T10:11:50.572Z,62
2017-08-06T10:12:58.660Z,61
2017-08-06T10:14:06.746Z,61
2017-08-06T10:15:14.831Z,61
2017-08-06T10:16:22.920Z,61
2017-08-06T10:17:31.012Z,61
2017-08-06T10:18:39.146Z,61
2017-08-06T10:19:47.204Z,61
2017-08-06T10:20:55.290Z,61
2017-08-06T10:22:03.388Z,61
2017-08-06T10:23:11.486Z,61
2017-08-06T10:24:19.573Z,61
2017-08-06T10:25:27.662Z,61
2017-08-06T10:26:35.748Z,61
2017-08-06T10:27:43.834Z,61
2017-08-06T10:28:51.921Z,61
2017-08-06T10:30:00.026Z,61
2017-08-06T10:31:08.110Z,61
2017-08-06T10:32:16.199Z,61
2017-08-06T10:33:24.285Z,62
2017-08-06T10:34:32.369Z,62
2017-08-06T10:35:40.460Z,61
2017-08-06T10:36:48.547Z,62
2017-08-06T10:37:56.642Z,61
2017-08-06T10:39:04.732Z,62
2017-08-06T10:40:12.816Z,62
2017-08-06T10:41:20.902Z,62
2017-08-06T10:42:28.988Z,62
2017-08-06T10:43:37.077Z,62
2017-08-06T10:44:45.163Z,62
2017-08-06T10:45:53.249Z,62
2017-08-06T10:47:01.338Z,62
2017-08-06T10:48:09.426Z,62
2017-08-06T10:49:17.529Z,61
2017-08-06T10:50:25.598Z,61
2017-08-06T10:51:33.683Z,61
2017-08-06T10:52:41.773Z,62
2017-08-06T10:53:49.856Z,62
2017-08-06T10:54:57.945Z,62
2017-08-06T10:56:06.033Z,61
2017-08-06T10:57:14.119Z,61
2017-08-06T10:58:22.220Z,62
2017-08-06T10:59:30.307Z,62
2017-08-06T11:00:38.392Z,62
2017-08-06T11:01:46.478Z,62
2017-08-06T11:02:54.565Z,62
2017-08-06T11:04:02.663Z,62
2017-08-06T11:05:10.800Z,61
2017-08-06T11:06:18.827Z,62
2017-08-06T11:07:26.913Z,62
2017-08-06T11:08:35.001Z,62
2017-08-06T11:09:43.090Z,62
2017-08-06T11:10:51.173Z,62
2017-08-06T11:11:59.274Z,62
2017-08-06T11:13:07.362Z,62
2017-08-06T11:14:15.448Z,62
2017-08-06T11:15:23.535Z,62
2017-08-06T11:16:31.628Z,62
2017-08-06T11:17:39.707Z,62
2017-08-06T11:18:47.798Z,62
2017-08-06T11:19:55.891Z,62
2017-08-06T11:21:03.970Z,62
2017-08-06T11:22:12.060Z,62
2017-08-06T11:23:20.145Z,62
2017-08-06T11:24:28.230Z,62
2017-08-06T11:25:36.316Z,62
2017-08-06T11:26:44.405Z,61
2017-08-06T11:27:52.491Z,61
2017-08-06T11:29:00.577Z,61
2017-08-06T11:30:08.666Z,62
2017-08-06T11:31:16.754Z,62
2017-08-06T11:32:24.839Z,62
2017-08-06T11:33:32.925Z,61
2017-08-06T11:34:41.016Z,62
2017-08-06T11:35:49.100Z,61
2017-08-06T11:36:57.188Z,61
2017-08-06T11:38:05.277Z,61
2017-08-06T11:39:13.363Z,62
2017-08-06T11:40:21.452Z,61
2017-08-06T11:41:29.536Z,62
2017-08-06T11:42:37.623Z,61
2017-08-06T11:43:45.710Z,61
2017-08-06T11:44:53.797Z,61
2017-08-06T11:46:01.882Z,61
2017-08-06T11:47:09.968Z,61
2017-08-06T11:48:18.064Z,62
2017-08-06T11:49:26.146Z,61
2017-08-06T11:50:34.232Z,61
2017-08-06T11:51:42.324Z,61
2017-08-06T11:52:50.406Z,62
2017-08-06T11:53:58.497Z,62
2017-08-06T11:55:06.580Z,62
2017-08-06T11:56:14.666Z,61
2017-08-06T11:57:22.754Z,62
2017-08-06T11:58:30.842Z,62
2017-08-06T11:59:38.927Z,61
2017-08-06T12:00:47.015Z,61
2017-08-06T12:01:55.102Z,62
2017-08-06T12:03:03.190Z,61
2017-08-06T12:04:11.278Z,62
2017-08-06T12:05:19.365Z,61
2017-08-06T12:06:27.454Z,61
2017-08-06T12:07:35.539Z,62
2017-08-06T12:08:43.626Z,61
2017-08-06T12:09:51.712Z,62
2017-08-06T12:10:59.798Z,61
2017-08-06T12:12:07.885Z,62
2017-08-06T12:13:15.975Z,62
2017-08-06T12:14:24.062Z,62
2017-08-06T12:15:32.146Z,62
2017-08-06T12:16:40.247Z,62
2017-08-06T12:17:48.327Z,62
2017-08-06T12:18:56.409Z,62
2017-08-06T12:20:04.497Z,62
2017-08-06T12:21:12.581Z,62
2017-08-06T12:22:20.674Z,62
2017-08-06T12:23:28.762Z,62
2017-08-06T12:24:36.849Z,62
2017-08-06T12:25:44.936Z,62
2017-08-06T12:26:53.023Z,62
2017-08-06T12:28:01.109Z,62
2017-08-06T12:29:09.198Z,62
2017-08-06T12:30:17.283Z,62
2017-08-06T12:31:25.370Z,62
2017-08-06T12:32:33.457Z,62
2017-08-06T12:33:41.543Z,62
2017-08-06T12:34:49.631Z,62
2017-08-06T12:35:57.718Z,62
2017-08-06T12:37:05.814Z,62
2017-08-06T12:38:13.892Z,63
2017-08-06T12:39:21.983Z,63
2017-08-06T12:40:30.065Z,63
2017-08-06T12:41:38.152Z,63
2017-08-06T12:42:46.238Z,62
2017-08-06T12:43:54.326Z,63
2017-08-06T12:45:02.416Z,63
2017-08-06T12:46:10.497Z,63
2017-08-06T12:47:18.587Z,63
2017-08-06T12:48:26.674Z,63
2017-08-06T12:49:34.761Z,63
2017-08-06T12:50:42.849Z,63
2017-08-06T12:51:50.936Z,63
2017-08-06T12:52:59.024Z,63
2017-08-06T12:54:07.111Z,63
2017-08-06T12:55:15.195Z,63
2017-08-06T12:56:23.285Z,62
2017-08-06T12:57:31.373Z,63
2017-08-06T12:58:39.460Z,63
2017-08-06T12:59:47.548Z,63
2017-08-06T13:00:55.635Z,63
2017-08-06T13:02:03.726Z,63
2017-08-06T13:03:11.811Z,62
2017-08-06T13:04:19.897Z,62
2017-08-06T13:05:27.986Z,62
2017-08-06T13:06:36.074Z,62
2017-08-06T13:07:44.161Z,63
2017-08-06T13:08:52.252Z,62
2017-08-06T13:10:00.345Z,62
2017-08-06T13:11:08.432Z,62
2017-08-06T13:12:16.529Z,62
2017-08-06T13:13:24.630Z,63
2017-08-06T13:14:32.719Z,62
2017-08-06T13:15:40.814Z,62
2017-08-06T13:16:48.893Z,62
2017-08-06T13:17:56.980Z,62
2017-08-06T13:19:05.070Z,62
2017-08-06T13:20:13.156Z,62
2017-08-06T13:21:21.244Z,61
2017-08-06T13:22:29.338Z,62
2017-08-06T13:23:37.418Z,62
2017-08-06T13:24:45.508Z,62
2017-08-06T13:25:53.592Z,61
2017-08-06T13:27:01.690Z,61
2017-08-06T13:28:09.767Z,62
2017-08-06T13:29:17.864Z,62
2017-08-06T13:30:25.957Z,62
2017-08-06T13:31:34.034Z,61
2017-08-06T13:32:42.127Z,62
2017-08-06T13:33:50.213Z,62
2017-08-06T13:34:58.305Z,61
2017-08-06T13:36:06.382Z,61
2017-08-06T13:37:14.468Z,61
2017-08-06T13:38:22.556Z,62
2017-08-06T13:39:30.650Z,62
2017-08-06T13:40:38.734Z,62
2017-08-06T13:41:46.851Z,61
2017-08-06T13:42:54.913Z,61
2017-08-06T13:44:02.998Z,62
2017-08-06T13:45:11.084Z,62
2017-08-06T13:46:19.174Z,62
2017-08-06T13:47:27.259Z,62
2017-08-06T13:48:35.349Z,62
2017-08-06T13:49:43.437Z,62
2017-08-06T13:50:51.554Z,61
2017-08-06T13:51:59.612Z,62
2017-08-06T13:53:07.700Z,62
2017-08-06T13:54:15.795Z,62
2017-08-06T13:55:23.884Z,62
2017-08-06T13:56:31.972Z,61
2017-08-06T13:57:40.059Z,62
2017-08-06T13:58:48.148Z,61
2017-08-06T13:59:56.235Z,62
2017-08-06T14:01:04.323Z,62
2017-08-06T14:02:12.409Z,62
2017-08-06T14:03:20.497Z,62
2017-08-06T14:04:28.585Z,62
2017-08-06T14:05:36.672Z,62
2017-08-06T14:06:44.760Z,62
2017-08-06T14:07:52.850Z,62
2017-08-06T14:09:00.945Z,62
2017-08-06T14:10:09.031Z,62
2017-08-06T14:11:17.117Z,62
2017-08-06T14:12:25.204Z,62
2017-08-06T14:13:33.291Z,62
2017-08-06T14:14:41.384Z,62
2017-08-06T14:15:49.475Z,62
2017-08-06T14:16:57.556Z,62
2017-08-06T14:18:05.643Z,62
2017-08-06T14:19:13.731Z,62
2017-08-06T14:20:21.821Z,62
2017-08-06T14:21:29.906Z,61
2017-08-06T14:22:37.993Z,62
2017-08-06T14:23:46.081Z,62
2017-08-06T14:24:54.170Z,62
2017-08-06T14:26:02.257Z,62
2017-08-06T14:27:10.343Z,62
2017-08-06T14:28:18.430Z,62
2017-08-06T14:29:26.520Z,62
2017-08-06T14:30:34.604Z,62
2017-08-06T14:31:42.694Z,62
2017-08-06T14:32:50.781Z,62
2017-08-06T14:33:58.868Z,62
2017-08-06T14:35:06.958Z,62
2017-08-06T14:36:15.044Z,62
2017-08-06T14:37:23.144Z,62
2017-08-06T14:38:31.224Z,62
2017-08-06T14:39:39.310Z,62
2017-08-06T14:40:47.397Z,62
2017-08-06T14:41:55.486Z,62
2017-08-06T14:43:03.574Z,62
2017-08-06T14:44:11.670Z,62
2017-08-06T14:45:19.750Z,62
2017-08-06T14:46:27.837Z,62
2017-08-06T14:47:35.926Z,62
2017-08-06T14:48:44.017Z,62
2017-08-06T14:49:52.103Z,62
2017-08-06T14:51:00.189Z,62
2017-08-06T14:52:08.275Z,62
2017-08-06T14:53:16.364Z,62
2017-08-06T14:54:24.468Z,62
2017-08-06T14:55:32.539Z,62
2017-08-06T14:56:40.658Z,62
2017-08-06T14:57:48.736Z,63
2017-08-06T14:58:56.838Z,62
2017-08-06T15:00:04.926Z,62
2017-08-06T15:01:13.012Z,62
2017-08-06T15:02:21.101Z,62
2017-08-06T15:03:29.185Z,62
2017-08-06T15:04:37.287Z,63
2017-08-06T15:05:45.385Z,62
2017-08-06T15:06:53.463Z,62
2017-08-06T15:08:01.579Z,62
2017-08-06T15:09:09.652Z,62
2017-08-06T15:10:17.746Z,62
2017-08-06T15:11:25.837Z,62
2017-08-06T15:12:33.921Z,62
2017-08-06T15:13:42.008Z,62
2017-08-06T15:14:50.096Z,62
2017-08-06T15:15:58.184Z,62
2017-08-06T15:17:06.282Z,62
2017-08-06T15:18:14.361Z,62
2017-08-06T15:19:22.446Z,62
2017-08-06T15:20:30.536Z,62
2017-08-06T15:21:38.623Z,62
2017-08-06T15:22:46.712Z,62
2017-08-06T15:23:54.797Z,62
2017-08-06T15:25:02.900Z,62
2017-08-06T15:26:10.989Z,62
2017-08-06T15:27:19.078Z,62
2017-08-06T15:28:27.164Z,62
2017-08-06T15:29:35.258Z,62
2017-08-06T15:30:43.341Z,62
2017-08-06T15:31:51.440Z,62
2017-08-06T15:32:59.527Z,62
2017-08-06T15:34:07.608Z,62
2017-08-06T15:35:15.696Z,62
2017-08-06T15:36:23.784Z,62
2017-08-06T15:37:31.874Z,63
2017-08-06T15:38:39.968Z,62
2017-08-06T15:39:48.056Z,62
2017-08-06T15:40:56.142Z,62
2017-08-06T15:42:04.235Z,62
2017-08-06T15:43:12.333Z,62
2017-08-06T15:44:20.410Z,62
2017-08-06T15:45:28.498Z,62
2017-08-06T15:46:36.587Z,62
2017-08-06T15:47:44.686Z,62
2017-08-06T15:48:52.765Z,62
2017-08-06T15:50:00.850Z,62
2017-08-06T15:51:08.944Z,62
2017-08-06T15:52:17.033Z,62
2017-08-06T15:53:25.119Z,62
2017-08-06T15:54:33.207Z,62
2017-08-06T15:55:41.293Z,62
2017-08-06T15:56:49.383Z,62
2017-08-06T15:57:57.471Z,62
2017-08-06T15:59:05.558Z,62
2017-08-06T16:00:13.654Z,62
2017-08-06T16:01:21.742Z,62
2017-08-06T16:02:29.829Z,62
2017-08-06T16:03:37.919Z,63
2017-08-06T16:04:46.013Z,62
2017-08-06T16:05:54.096Z,62
2017-08-06T16:07:02.183Z,62
2017-08-06T16:08:10.271Z,62
2017-08-06T16:09:18.361Z,62
2017-08-06T16:10:26.460Z,62